EXS34K EGPH-ENBR
Flight info
| Callsign | EXS34K |
|---|---|
| Flight time | 1h 17m |
| Altitude | 37000 |
| Route | GRICE P600 ASNUD DCT BEREP DCT MODNI |
| Aircraft | B738/M-SDE2E3FGHIRWXY/LB1 |
Departure
| Time | 2026-05-06 18:48 |
|---|---|
| Airport | Edinburgh Airport (EGPH) |
Arrival
| Time | 2026-05-06 20:06 |
|---|---|
| Airport | Bergen Airport, Flesland (ENBR) |
| Time | Latitude | Longitude | Altitude | Speed | Heading |
|---|---|---|---|---|---|
| 2026-05-06 18:26 | 55.94612 | -3.36630 | 115 ft | 0 kts | 89° |
| 2026-05-06 18:39 | 55.94612 | -3.36655 | 112 ft | 4 kts | 83° |
| 2026-05-06 18:40 | 55.94589 | -3.36731 | 112 ft | 4 kts | 12° |
| 2026-05-06 18:40 | 55.94581 | -3.36733 | 112 ft | 1 kts | 359° |
| 2026-05-06 18:43 | 55.94587 | -3.36733 | 112 ft | 3 kts | 359° |
| 2026-05-06 18:43 | 55.94638 | -3.36734 | 114 ft | 11 kts | 359° |
| 2026-05-06 18:44 | 55.94724 | -3.36736 | 115 ft | 12 kts | 359° |
| 2026-05-06 18:44 | 55.94805 | -3.36779 | 115 ft | 12 kts | 358° |
| 2026-05-06 18:44 | 55.94890 | -3.36796 | 111 ft | 12 kts | 332° |
| 2026-05-06 18:44 | 55.94920 | -3.36910 | 115 ft | 12 kts | 246° |
| 2026-05-06 18:45 | 55.94872 | -3.37054 | 114 ft | 16 kts | 238° |
| 2026-05-06 18:45 | 55.94802 | -3.37259 | 112 ft | 22 kts | 239° |
| 2026-05-06 18:45 | 55.94714 | -3.37517 | 114 ft | 25 kts | 238° |
| 2026-05-06 18:45 | 55.94627 | -3.37772 | 114 ft | 23 kts | 239° |
| 2026-05-06 18:46 | 55.94545 | -3.38014 | 115 ft | 22 kts | 239° |
| 2026-05-06 18:46 | 55.94466 | -3.38249 | 114 ft | 22 kts | 239° |
| 2026-05-06 18:46 | 55.94390 | -3.38478 | 114 ft | 21 kts | 238° |
| 2026-05-06 18:46 | 55.94331 | -3.38652 | 115 ft | 14 kts | 238° |
| 2026-05-06 18:47 | 55.94285 | -3.38785 | 115 ft | 11 kts | 239° |
| 2026-05-06 18:47 | 55.94313 | -3.38897 | 113 ft | 11 kts | 328° |
| 2026-05-06 18:47 | 55.94380 | -3.38967 | 110 ft | 12 kts | 336° |
| 2026-05-06 18:47 | 55.94444 | -3.38890 | 113 ft | 16 kts | 59° |
| 2026-05-06 18:48 | 55.94567 | -3.38526 | 112 ft | 67 kts | 59° |
| 2026-05-06 18:48 | 55.94933 | -3.37450 | 110 ft | 134 kts | 59° |
| 2026-05-06 18:48 | 55.95477 | -3.35788 | 384 ft | 164 kts | 63° |
| 2026-05-06 18:48 | 55.96083 | -3.34122 | 1333 ft | 160 kts | 52° |
| 2026-05-06 18:49 | 55.96980 | -3.32690 | 1778 ft | 188 kts | 43° |
| 2026-05-06 18:49 | 55.98044 | -3.31010 | 2056 ft | 218 kts | 44° |
| 2026-05-06 18:49 | 55.99234 | -3.29108 | 2310 ft | 240 kts | 41° |
| 2026-05-06 18:49 | 56.00735 | -3.27513 | 2637 ft | 262 kts | 21° |
| 2026-05-06 18:50 | 56.02546 | -3.26884 | 3412 ft | 267 kts | 0° |
| 2026-05-06 18:50 | 56.04362 | -3.27432 | 3959 ft | 268 kts | 337° |
| 2026-05-06 18:50 | 56.05917 | -3.29215 | 4793 ft | 267 kts | 314° |
| 2026-05-06 18:50 | 56.06994 | -3.31889 | 5595 ft | 265 kts | 293° |
| 2026-05-06 18:51 | 56.07537 | -3.35014 | 5963 ft | 266 kts | 281° |
| 2026-05-06 18:51 | 56.07924 | -3.38244 | 6828 ft | 265 kts | 281° |
| 2026-05-06 18:51 | 56.08326 | -3.41464 | 7660 ft | 266 kts | 281° |
| 2026-05-06 18:51 | 56.08750 | -3.44713 | 8425 ft | 270 kts | 282° |
| 2026-05-06 18:52 | 56.09191 | -3.48008 | 9219 ft | 273 kts | 282° |
| 2026-05-06 18:52 | 56.09641 | -3.51339 | 10001 ft | 277 kts | 282° |
| 2026-05-06 18:52 | 56.10406 | -3.54566 | 10436 ft | 296 kts | 306° |
| 2026-05-06 18:52 | 56.12090 | -3.56889 | 10669 ft | 321 kts | 335° |
| 2026-05-06 18:53 | 56.14314 | -3.57707 | 11259 ft | 333 kts | 356° |
| 2026-05-06 18:53 | 56.16629 | -3.57269 | 11994 ft | 339 kts | 11° |
| 2026-05-06 18:53 | 56.18922 | -3.56120 | 12755 ft | 344 kts | 15° |
| 2026-05-06 18:53 | 56.21213 | -3.54795 | 13498 ft | 349 kts | 15° |
| 2026-05-06 18:54 | 56.23538 | -3.53455 | 14219 ft | 353 kts | 15° |
| 2026-05-06 18:54 | 56.25896 | -3.52147 | 14945 ft | 356 kts | 14° |
| 2026-05-06 18:54 | 56.28279 | -3.50874 | 15667 ft | 359 kts | 13° |
| 2026-05-06 18:54 | 56.30688 | -3.49619 | 16409 ft | 362 kts | 13° |
| 2026-05-06 18:55 | 56.33120 | -3.48361 | 17135 ft | 366 kts | 13° |
| 2026-05-06 18:55 | 56.35580 | -3.47043 | 17846 ft | 371 kts | 16° |
| 2026-05-06 18:55 | 56.37921 | -3.45133 | 18504 ft | 379 kts | 27° |
| 2026-05-06 18:55 | 56.40146 | -3.42387 | 19120 ft | 385 kts | 33° |
| 2026-05-06 18:56 | 56.42272 | -3.39520 | 19735 ft | 388 kts | 33° |
| 2026-05-06 18:56 | 56.44448 | -3.36608 | 20332 ft | 392 kts | 32° |
| 2026-05-06 18:56 | 56.46679 | -3.33745 | 20940 ft | 395 kts | 31° |
| 2026-05-06 18:56 | 56.48958 | -3.30935 | 21533 ft | 398 kts | 30° |
| 2026-05-06 18:57 | 56.51267 | -3.28118 | 22112 ft | 402 kts | 30° |
| 2026-05-06 18:57 | 56.53593 | -3.25273 | 22679 ft | 405 kts | 29° |
| 2026-05-06 18:57 | 56.55934 | -3.22391 | 23247 ft | 409 kts | 29° |
| 2026-05-06 18:57 | 56.58292 | -3.19471 | 23771 ft | 412 kts | 29° |
| 2026-05-06 18:58 | 56.60667 | -3.16516 | 24261 ft | 415 kts | 29° |
| 2026-05-06 18:58 | 56.63046 | -3.13549 | 24783 ft | 416 kts | 29° |
| 2026-05-06 18:58 | 56.65437 | -3.10563 | 25282 ft | 417 kts | 29° |
| 2026-05-06 18:58 | 56.67828 | -3.07574 | 25779 ft | 419 kts | 29° |
| 2026-05-06 18:59 | 56.70162 | -3.04347 | 26218 ft | 426 kts | 37° |
| 2026-05-06 18:59 | 56.72120 | -3.00890 | 26638 ft | 430 kts | 40° |
| 2026-05-06 18:59 | 56.74225 | -2.96973 | 27091 ft | 433 kts | 40° |
| 2026-05-06 18:59 | 56.76319 | -2.93009 | 27524 ft | 436 kts | 40° |
| 2026-05-06 19:00 | 56.78421 | -2.89016 | 27953 ft | 437 kts | 40° |
| 2026-05-06 19:00 | 56.80532 | -2.85017 | 28395 ft | 439 kts | 40° |
| 2026-05-06 19:00 | 56.82660 | -2.81004 | 28793 ft | 441 kts | 40° |
| 2026-05-06 19:00 | 56.84806 | -2.76969 | 29183 ft | 443 kts | 40° |
| 2026-05-06 19:01 | 56.86961 | -2.72922 | 29566 ft | 446 kts | 39° |
| 2026-05-06 19:01 | 56.89129 | -2.68848 | 29958 ft | 448 kts | 39° |
| 2026-05-06 19:01 | 56.91303 | -2.64762 | 30295 ft | 450 kts | 39° |
| 2026-05-06 19:01 | 56.92061 | -2.63336 | 30406 ft | 450 kts | 39° |
| 2026-05-06 19:02 | 56.94306 | -2.59105 | 30761 ft | 451 kts | 39° |
| 2026-05-06 19:02 | 56.96494 | -2.54974 | 31095 ft | 452 kts | 39° |
| 2026-05-06 19:02 | 56.98685 | -2.50831 | 31432 ft | 453 kts | 39° |
| 2026-05-06 19:02 | 57.00873 | -2.46684 | 31831 ft | 452 kts | 39° |
| 2026-05-06 19:03 | 57.03049 | -2.42547 | 32315 ft | 449 kts | 39° |
| 2026-05-06 19:03 | 57.05210 | -2.38433 | 32800 ft | 446 kts | 39° |
| 2026-05-06 19:03 | 57.07354 | -2.34345 | 33223 ft | 444 kts | 39° |
| 2026-05-06 19:03 | 57.09492 | -2.30263 | 33604 ft | 443 kts | 38° |
| 2026-05-06 19:04 | 57.11629 | -2.26179 | 33971 ft | 442 kts | 38° |
| 2026-05-06 19:04 | 57.13751 | -2.22116 | 34277 ft | 441 kts | 39° |
| 2026-05-06 19:04 | 57.15855 | -2.18082 | 34475 ft | 443 kts | 39° |
| 2026-05-06 19:04 | 57.18024 | -2.13920 | 34641 ft | 446 kts | 39° |
| 2026-05-06 19:05 | 57.20147 | -2.09837 | 34839 ft | 447 kts | 39° |
| 2026-05-06 19:05 | 57.22298 | -2.05688 | 35081 ft | 448 kts | 40° |
| 2026-05-06 19:05 | 57.24452 | -2.01525 | 35275 ft | 450 kts | 40° |
| 2026-05-06 19:05 | 57.26615 | -1.97338 | 35468 ft | 451 kts | 40° |
| 2026-05-06 19:06 | 57.28781 | -1.93137 | 35683 ft | 452 kts | 40° |
| 2026-05-06 19:06 | 57.30949 | -1.88923 | 35875 ft | 453 kts | 41° |
| 2026-05-06 19:06 | 57.33128 | -1.84683 | 36052 ft | 455 kts | 41° |
| 2026-05-06 19:06 | 57.35311 | -1.80425 | 36223 ft | 457 kts | 41° |
| 2026-05-06 19:07 | 57.37498 | -1.76153 | 36411 ft | 458 kts | 41° |
| 2026-05-06 19:07 | 57.39688 | -1.71864 | 36609 ft | 459 kts | 42° |
| 2026-05-06 19:07 | 57.41881 | -1.67565 | 36795 ft | 460 kts | 42° |
| 2026-05-06 19:07 | 57.44084 | -1.63236 | 36971 ft | 461 kts | 42° |
| 2026-05-06 19:08 | 57.46284 | -1.58905 | 37047 ft | 464 kts | 42° |
| 2026-05-06 19:08 | 57.50715 | -1.50159 | 37052 ft | 464 kts | 43° |
| 2026-05-06 19:09 | 57.55117 | -1.41431 | 37043 ft | 461 kts | 43° |
| 2026-05-06 19:09 | 57.59486 | -1.32738 | 37045 ft | 458 kts | 43° |
| 2026-05-06 19:10 | 57.63831 | -1.24063 | 37048 ft | 457 kts | 43° |
| 2026-05-06 19:10 | 57.68171 | -1.15369 | 37055 ft | 457 kts | 43° |
| 2026-05-06 19:11 | 57.72506 | -1.06651 | 37060 ft | 458 kts | 43° |
| 2026-05-06 19:11 | 57.76821 | -0.97939 | 37064 ft | 461 kts | 43° |
| 2026-05-06 19:12 | 57.81185 | -0.89096 | 37066 ft | 463 kts | 43° |
| 2026-05-06 19:12 | 57.85565 | -0.80184 | 37063 ft | 466 kts | 44° |
| 2026-05-06 19:13 | 57.89963 | -0.71200 | 37057 ft | 468 kts | 44° |
| 2026-05-06 19:13 | 57.94376 | -0.62152 | 37060 ft | 470 kts | 44° |
| 2026-05-06 19:14 | 57.98797 | -0.53049 | 37057 ft | 472 kts | 44° |
| 2026-05-06 19:14 | 58.03225 | -0.43897 | 37058 ft | 472 kts | 44° |
| 2026-05-06 19:15 | 58.07649 | -0.34717 | 37061 ft | 473 kts | 44° |
| 2026-05-06 19:15 | 58.12063 | -0.25520 | 37062 ft | 472 kts | 44° |
| 2026-05-06 19:16 | 58.16470 | -0.16304 | 37059 ft | 472 kts | 44° |
| 2026-05-06 19:16 | 58.20862 | -0.07079 | 37062 ft | 471 kts | 44° |
| 2026-05-06 19:17 | 58.25238 | 0.02146 | 37062 ft | 470 kts | 44° |
| 2026-05-06 19:17 | 58.29608 | 0.11395 | 37064 ft | 470 kts | 44° |
| 2026-05-06 19:18 | 58.33966 | 0.20657 | 37064 ft | 470 kts | 44° |
| 2026-05-06 19:18 | 58.38160 | 0.29604 | 37066 ft | 470 kts | 44° |
| 2026-05-06 19:19 | 58.42501 | 0.38901 | 37064 ft | 470 kts | 45° |
| 2026-05-06 19:19 | 58.46854 | 0.48262 | 37062 ft | 471 kts | 45° |
| 2026-05-06 19:20 | 58.51200 | 0.57646 | 37066 ft | 472 kts | 45° |
| 2026-05-06 19:20 | 58.55548 | 0.67074 | 37067 ft | 473 kts | 45° |
| 2026-05-06 19:21 | 58.59896 | 0.76539 | 37067 ft | 474 kts | 45° |
| 2026-05-06 19:21 | 58.64250 | 0.86057 | 37065 ft | 475 kts | 45° |
| 2026-05-06 19:22 | 58.68578 | 0.95557 | 37066 ft | 476 kts | 45° |
| 2026-05-06 19:22 | 58.72230 | 1.03602 | 37065 ft | 477 kts | 45° |
| 2026-05-06 19:23 | 58.76588 | 1.13241 | 37063 ft | 477 kts | 45° |
| 2026-05-06 19:23 | 58.80941 | 1.22909 | 37060 ft | 478 kts | 45° |
| 2026-05-06 19:24 | 58.85297 | 1.32624 | 37061 ft | 478 kts | 45° |
| 2026-05-06 19:24 | 58.89602 | 1.42274 | 37042 ft | 463 kts | 45° |
| 2026-05-06 19:24 | 58.91672 | 1.46934 | 37037 ft | 449 kts | 45° |
| 2026-05-06 19:25 | 58.93677 | 1.51453 | 37028 ft | 436 kts | 45° |
| 2026-05-06 19:25 | 58.95623 | 1.55845 | 37046 ft | 425 kts | 45° |
| 2026-05-06 19:25 | 58.97550 | 1.60190 | 37068 ft | 427 kts | 45° |
| 2026-05-06 19:26 | 59.01467 | 1.69039 | 37082 ft | 438 kts | 45° |
| 2026-05-06 19:26 | 59.05491 | 1.78102 | 37078 ft | 447 kts | 44° |
| 2026-05-06 19:27 | 59.09681 | 1.87071 | 37072 ft | 450 kts | 43° |
| 2026-05-06 19:27 | 59.13898 | 1.96047 | 37045 ft | 446 kts | 43° |
| 2026-05-06 19:28 | 59.17999 | 2.04872 | 36579 ft | 435 kts | 43° |
| 2026-05-06 19:28 | 59.20018 | 2.09235 | 35713 ft | 446 kts | 43° |
| 2026-05-06 19:28 | 59.22156 | 2.13857 | 34815 ft | 458 kts | 43° |
| 2026-05-06 19:28 | 59.24265 | 2.18436 | 34305 ft | 460 kts | 43° |
| 2026-05-06 19:29 | 59.26388 | 2.23072 | 33990 ft | 455 kts | 43° |
| 2026-05-06 19:29 | 59.28482 | 2.27660 | 33665 ft | 449 kts | 42° |
| 2026-05-06 19:29 | 59.30550 | 2.32198 | 33318 ft | 445 kts | 42° |
| 2026-05-06 19:29 | 59.32592 | 2.36686 | 32900 ft | 439 kts | 42° |
| 2026-05-06 19:30 | 59.34613 | 2.41131 | 32383 ft | 435 kts | 42° |
| 2026-05-06 19:30 | 59.36618 | 2.45546 | 31856 ft | 432 kts | 42° |
| 2026-05-06 19:30 | 59.38601 | 2.49920 | 31377 ft | 428 kts | 41° |
| 2026-05-06 19:30 | 59.40566 | 2.54262 | 30917 ft | 423 kts | 41° |
| 2026-05-06 19:31 | 59.42508 | 2.58564 | 30462 ft | 419 kts | 41° |
| 2026-05-06 19:31 | 59.44431 | 2.62830 | 29973 ft | 414 kts | 41° |
| 2026-05-06 19:31 | 59.48216 | 2.71245 | 28741 ft | 408 kts | 41° |
| 2026-05-06 19:32 | 59.50092 | 2.75427 | 28117 ft | 406 kts | 41° |
| 2026-05-06 19:32 | 59.51954 | 2.79587 | 27535 ft | 403 kts | 41° |
| 2026-05-06 19:32 | 59.53805 | 2.83728 | 26982 ft | 403 kts | 41° |
| 2026-05-06 19:32 | 59.55652 | 2.87865 | 26581 ft | 401 kts | 41° |
| 2026-05-06 19:33 | 59.57485 | 2.91985 | 26246 ft | 397 kts | 41° |
| 2026-05-06 19:33 | 59.59300 | 2.96073 | 25891 ft | 395 kts | 42° |
| 2026-05-06 19:33 | 59.61106 | 3.00145 | 25506 ft | 393 kts | 42° |
| 2026-05-06 19:33 | 59.62904 | 3.04205 | 25102 ft | 391 kts | 42° |
| 2026-05-06 19:34 | 59.64681 | 3.08229 | 24635 ft | 388 kts | 42° |
| 2026-05-06 19:34 | 59.66453 | 3.12244 | 24104 ft | 387 kts | 42° |
| 2026-05-06 19:34 | 59.68218 | 3.16249 | 23594 ft | 385 kts | 42° |
| 2026-05-06 19:34 | 59.69971 | 3.20236 | 23051 ft | 382 kts | 42° |
| 2026-05-06 19:35 | 59.71703 | 3.24187 | 22570 ft | 377 kts | 42° |
| 2026-05-06 19:35 | 59.73414 | 3.28096 | 22095 ft | 373 kts | 42° |
| 2026-05-06 19:35 | 59.75108 | 3.31970 | 21601 ft | 370 kts | 42° |
| 2026-05-06 19:35 | 59.76783 | 3.35806 | 21122 ft | 366 kts | 42° |
| 2026-05-06 19:36 | 59.78442 | 3.39611 | 20653 ft | 363 kts | 42° |
| 2026-05-06 19:36 | 59.80094 | 3.43402 | 20258 ft | 363 kts | 43° |
| 2026-05-06 19:36 | 59.81724 | 3.47156 | 20076 ft | 355 kts | 43° |
| 2026-05-06 19:36 | 59.83313 | 3.50829 | 20040 ft | 343 kts | 42° |
| 2026-05-06 19:37 | 59.84842 | 3.54370 | 20027 ft | 331 kts | 42° |
| 2026-05-06 19:37 | 59.86315 | 3.57784 | 20028 ft | 319 kts | 42° |
| 2026-05-06 19:37 | 59.87730 | 3.61067 | 20033 ft | 308 kts | 41° |
| 2026-05-06 19:37 | 59.89118 | 3.64281 | 20043 ft | 305 kts | 41° |
| 2026-05-06 19:38 | 59.90508 | 3.67493 | 20060 ft | 307 kts | 41° |
| 2026-05-06 19:38 | 59.91905 | 3.70729 | 20065 ft | 309 kts | 41° |
| 2026-05-06 19:38 | 59.93290 | 3.73945 | 20067 ft | 310 kts | 41° |
| 2026-05-06 19:38 | 59.94697 | 3.77221 | 20062 ft | 312 kts | 41° |
| 2026-05-06 19:39 | 59.96129 | 3.80564 | 20061 ft | 313 kts | 42° |
| 2026-05-06 19:39 | 59.97524 | 3.83827 | 20059 ft | 314 kts | 41° |
| 2026-05-06 19:39 | 59.98945 | 3.87155 | 20056 ft | 315 kts | 41° |
| 2026-05-06 19:39 | 60.00367 | 3.90491 | 20057 ft | 315 kts | 41° |
| 2026-05-06 19:40 | 60.01789 | 3.93831 | 20054 ft | 315 kts | 42° |
| 2026-05-06 19:40 | 60.03207 | 3.97168 | 20039 ft | 315 kts | 41° |
| 2026-05-06 19:40 | 60.04699 | 4.00362 | 20058 ft | 312 kts | 31° |
| 2026-05-06 19:40 | 60.06474 | 4.02615 | 19942 ft | 293 kts | 11° |
| 2026-05-06 19:41 | 60.08384 | 4.03464 | 19656 ft | 272 kts | 349° |
| 2026-05-06 19:41 | 60.10190 | 4.02902 | 19282 ft | 256 kts | 329° |
| 2026-05-06 19:41 | 60.11708 | 4.01250 | 18955 ft | 243 kts | 314° |
| 2026-05-06 19:41 | 60.12868 | 3.98885 | 18660 ft | 235 kts | 300° |
| 2026-05-06 19:42 | 60.13622 | 3.96041 | 18355 ft | 230 kts | 287° |
| 2026-05-06 19:42 | 60.13956 | 3.92928 | 18006 ft | 229 kts | 276° |
| 2026-05-06 19:42 | 60.13970 | 3.89739 | 17654 ft | 230 kts | 266° |
| 2026-05-06 19:42 | 60.13566 | 3.86621 | 17290 ft | 235 kts | 250° |
| 2026-05-06 19:43 | 60.12796 | 3.83716 | 16972 ft | 237 kts | 245° |
| 2026-05-06 19:43 | 60.11953 | 3.80874 | 16642 ft | 237 kts | 244° |
| 2026-05-06 19:43 | 60.11102 | 3.78048 | 16321 ft | 237 kts | 244° |
| 2026-05-06 19:43 | 60.10253 | 3.75221 | 15995 ft | 236 kts | 244° |
| 2026-05-06 19:44 | 60.09251 | 3.72653 | 15991 ft | 234 kts | 226° |
| 2026-05-06 19:44 | 60.07824 | 3.70924 | 15691 ft | 247 kts | 211° |
| 2026-05-06 19:44 | 60.06132 | 3.69933 | 15275 ft | 262 kts | 195° |
| 2026-05-06 19:44 | 60.04274 | 3.69935 | 14937 ft | 273 kts | 178° |
| 2026-05-06 19:45 | 60.02443 | 3.71127 | 14680 ft | 282 kts | 157° |
| 2026-05-06 19:45 | 60.00883 | 3.73570 | 14424 ft | 290 kts | 134° |
| 2026-05-06 19:45 | 59.99856 | 3.77028 | 14170 ft | 295 kts | 110° |
| 2026-05-06 19:45 | 59.99524 | 3.81067 | 13927 ft | 294 kts | 87° |
| 2026-05-06 19:46 | 59.99844 | 3.85062 | 13661 ft | 290 kts | 66° |
| 2026-05-06 19:46 | 60.00715 | 3.88643 | 13401 ft | 285 kts | 56° |
| 2026-05-06 19:46 | 60.01736 | 3.92038 | 13127 ft | 285 kts | 54° |
| 2026-05-06 19:46 | 60.02769 | 3.95419 | 12856 ft | 284 kts | 55° |
| 2026-05-06 19:47 | 60.03806 | 3.98765 | 12576 ft | 282 kts | 49° |
| 2026-05-06 19:47 | 60.05141 | 4.01570 | 12315 ft | 276 kts | 37° |
| 2026-05-06 19:47 | 60.06590 | 4.04060 | 12044 ft | 274 kts | 36° |
| 2026-05-06 19:47 | 60.08044 | 4.06507 | 11775 ft | 272 kts | 36° |
| 2026-05-06 19:48 | 60.09476 | 4.08962 | 11513 ft | 270 kts | 37° |
| 2026-05-06 19:48 | 60.10890 | 4.11434 | 11250 ft | 269 kts | 38° |
| 2026-05-06 19:48 | 60.12287 | 4.13915 | 10988 ft | 268 kts | 38° |
| 2026-05-06 19:48 | 60.13670 | 4.16398 | 10726 ft | 266 kts | 38° |
| 2026-05-06 19:49 | 60.15043 | 4.18879 | 10472 ft | 265 kts | 39° |
| 2026-05-06 19:49 | 60.16399 | 4.21343 | 10272 ft | 261 kts | 39° |
| 2026-05-06 19:49 | 60.17725 | 4.23760 | 10156 ft | 255 kts | 39° |
| 2026-05-06 19:49 | 60.19032 | 4.26145 | 10098 ft | 252 kts | 39° |
| 2026-05-06 19:50 | 60.20332 | 4.28524 | 10059 ft | 254 kts | 39° |
| 2026-05-06 19:50 | 60.21647 | 4.30931 | 10061 ft | 258 kts | 39° |
| 2026-05-06 19:50 | 60.22982 | 4.33378 | 10061 ft | 261 kts | 39° |
| 2026-05-06 19:50 | 60.24318 | 4.35836 | 10051 ft | 259 kts | 39° |
| 2026-05-06 19:51 | 60.25643 | 4.38279 | 10034 ft | 258 kts | 39° |
| 2026-05-06 19:51 | 60.26964 | 4.40715 | 10039 ft | 257 kts | 39° |
| 2026-05-06 19:51 | 60.28260 | 4.43109 | 10042 ft | 255 kts | 39° |
| 2026-05-06 19:51 | 60.29585 | 4.45560 | 10041 ft | 255 kts | 39° |
| 2026-05-06 19:52 | 60.30873 | 4.47943 | 10044 ft | 255 kts | 39° |
| 2026-05-06 19:52 | 60.32197 | 4.50393 | 10049 ft | 255 kts | 40° |
| 2026-05-06 19:52 | 60.33487 | 4.52787 | 10054 ft | 256 kts | 40° |
| 2026-05-06 19:52 | 60.34795 | 4.55216 | 9961 ft | 255 kts | 40° |
| 2026-05-06 19:53 | 60.36087 | 4.57638 | 9697 ft | 254 kts | 43° |
| 2026-05-06 19:53 | 60.37140 | 4.60540 | 9328 ft | 258 kts | 58° |
| 2026-05-06 19:53 | 60.38016 | 4.63710 | 9064 ft | 257 kts | 59° |
| 2026-05-06 19:53 | 60.38871 | 4.66854 | 8797 ft | 256 kts | 60° |
| 2026-05-06 19:54 | 60.39924 | 4.69720 | 8486 ft | 252 kts | 34° |
| 2026-05-06 19:54 | 60.41498 | 4.70992 | 8210 ft | 242 kts | 1° |
| 2026-05-06 19:54 | 60.43130 | 4.70671 | 8102 ft | 232 kts | 341° |
| 2026-05-06 19:54 | 60.44658 | 4.69655 | 8062 ft | 230 kts | 337° |
| 2026-05-06 19:55 | 60.46177 | 4.68578 | 8051 ft | 236 kts | 347° |
| 2026-05-06 19:55 | 60.47843 | 4.68513 | 8078 ft | 242 kts | 359° |
| 2026-05-06 19:55 | 60.49539 | 4.68590 | 8054 ft | 243 kts | 358° |
| 2026-05-06 19:55 | 60.51224 | 4.68639 | 8026 ft | 242 kts | 360° |
| 2026-05-06 19:56 | 60.52866 | 4.69409 | 7886 ft | 243 kts | 18° |
| 2026-05-06 19:56 | 60.54413 | 4.70794 | 7582 ft | 246 kts | 32° |
| 2026-05-06 19:56 | 60.55558 | 4.73376 | 7263 ft | 251 kts | 64° |
| 2026-05-06 19:56 | 60.56086 | 4.76737 | 7031 ft | 249 kts | 76° |
| 2026-05-06 19:57 | 60.56475 | 4.80162 | 6795 ft | 249 kts | 77° |
| 2026-05-06 19:57 | 60.56849 | 4.83588 | 6639 ft | 246 kts | 77° |
| 2026-05-06 19:57 | 60.57211 | 4.86940 | 6575 ft | 239 kts | 77° |
| 2026-05-06 19:57 | 60.57559 | 4.90180 | 6484 ft | 231 kts | 77° |
| 2026-05-06 19:58 | 60.57895 | 4.93312 | 6407 ft | 222 kts | 77° |
| 2026-05-06 19:58 | 60.58215 | 4.96309 | 6314 ft | 213 kts | 77° |
| 2026-05-06 19:58 | 60.58524 | 4.99190 | 6193 ft | 205 kts | 77° |
| 2026-05-06 19:58 | 60.58823 | 5.02006 | 6044 ft | 202 kts | 77° |
| 2026-05-06 19:59 | 60.59118 | 5.04786 | 5832 ft | 200 kts | 77° |
| 2026-05-06 19:59 | 60.59125 | 5.07589 | 5504 ft | 201 kts | 111° |
| 2026-05-06 19:59 | 60.58332 | 5.09831 | 5183 ft | 196 kts | 146° |
| 2026-05-06 19:59 | 60.57229 | 5.11433 | 4935 ft | 194 kts | 147° |
| 2026-05-06 20:00 | 60.56148 | 5.12983 | 4790 ft | 185 kts | 147° |
| 2026-05-06 20:00 | 60.55090 | 5.14282 | 4699 ft | 173 kts | 168° |
| 2026-05-06 20:00 | 60.53935 | 5.14250 | 4483 ft | 164 kts | 188° |
| 2026-05-06 20:00 | 60.52786 | 5.14232 | 4160 ft | 167 kts | 180° |
| 2026-05-06 20:01 | 60.51631 | 5.14435 | 3888 ft | 166 kts | 176° |
| 2026-05-06 20:01 | 60.50490 | 5.14746 | 3627 ft | 163 kts | 174° |
| 2026-05-06 20:01 | 60.49379 | 5.15096 | 3603 ft | 169 kts | 173° |
| 2026-05-06 20:01 | 60.48215 | 5.15473 | 3575 ft | 168 kts | 173° |
| 2026-05-06 20:02 | 60.47077 | 5.15852 | 3367 ft | 165 kts | 173° |
| 2026-05-06 20:02 | 60.45947 | 5.16253 | 3093 ft | 165 kts | 170° |
| 2026-05-06 20:02 | 60.44806 | 5.16686 | 3122 ft | 170 kts | 174° |
| 2026-05-06 20:02 | 60.43591 | 5.17027 | 2921 ft | 182 kts | 173° |
| 2026-05-06 20:03 | 60.42350 | 5.17441 | 2730 ft | 184 kts | 173° |
| 2026-05-06 20:03 | 60.41100 | 5.17832 | 2479 ft | 177 kts | 172° |
| 2026-05-06 20:03 | 60.39899 | 5.18262 | 2255 ft | 174 kts | 171° |
| 2026-05-06 20:03 | 60.38708 | 5.18717 | 1971 ft | 169 kts | 173° |
| 2026-05-06 20:04 | 60.37577 | 5.19051 | 1741 ft | 160 kts | 172° |
| 2026-05-06 20:04 | 60.36485 | 5.19424 | 1492 ft | 161 kts | 172° |
| 2026-05-06 20:04 | 60.35423 | 5.19765 | 1279 ft | 150 kts | 171° |
| 2026-05-06 20:04 | 60.34400 | 5.20111 | 1064 ft | 149 kts | 171° |
| 2026-05-06 20:05 | 60.33366 | 5.20459 | 850 ft | 153 kts | 171° |
| 2026-05-06 20:05 | 60.32323 | 5.20811 | 596 ft | 150 kts | 170° |
| 2026-05-06 20:05 | 60.31301 | 5.21161 | 401 ft | 147 kts | 171° |
| 2026-05-06 20:05 | 60.30294 | 5.21502 | 199 ft | 147 kts | 171° |
| 2026-05-06 20:06 | 60.29347 | 5.21818 | 154 ft | 124 kts | 171° |
| 2026-05-06 20:06 | 60.28643 | 5.22057 | 161 ft | 82 kts | 170° |
| 2026-05-06 20:06 | 60.28345 | 5.22158 | 158 ft | 14 kts | 171° |
| 2026-05-06 20:06 | 60.28286 | 5.22221 | 155 ft | 11 kts | 116° |
| 2026-05-06 20:07 | 60.28280 | 5.22373 | 153 ft | 10 kts | 80° |
| 2026-05-06 20:07 | 60.28294 | 5.22463 | 155 ft | 6 kts | 45° |
| 2026-05-06 20:07 | 60.28334 | 5.22474 | 157 ft | 6 kts | 358° |
| 2026-05-06 20:07 | 60.28373 | 5.22461 | 159 ft | 6 kts | 349° |
| 2026-05-06 20:08 | 60.28412 | 5.22447 | 161 ft | 6 kts | 351° |
| 2026-05-06 20:08 | 60.28438 | 5.22439 | 162 ft | 6 kts | 351° |
| 2026-05-06 20:08 | 60.28481 | 5.22425 | 162 ft | 7 kts | 351° |
| 2026-05-06 20:08 | 60.28531 | 5.22409 | 162 ft | 7 kts | 351° |
| 2026-05-06 20:09 | 60.28581 | 5.22392 | 163 ft | 7 kts | 350° |
| 2026-05-06 20:09 | 60.28632 | 5.22374 | 164 ft | 8 kts | 350° |
| 2026-05-06 20:09 | 60.28683 | 5.22411 | 164 ft | 9 kts | 63° |
| 2026-05-06 20:09 | 60.28708 | 5.22522 | 165 ft | 9 kts | 75° |
| 2026-05-06 20:10 | 60.28737 | 5.22620 | 169 ft | 8 kts | 36° |
| 2026-05-06 20:10 | 60.28778 | 5.22674 | 171 ft | 6 kts | 26° |
| 2026-05-06 20:10 | 60.28804 | 5.22688 | 172 ft | 2 kts | 11° |
| 2026-05-06 20:10 | 60.28812 | 5.22691 | 172 ft | 1 kts | 10° |
| 2026-05-06 20:11 | 60.28812 | 5.22692 | 172 ft | 0 kts | 10° |